sensor_id;sensor_type;location;lat;lon;timestamp;pressure;altitude;pressure_sealevel;temperature;humidity
54924;BME280;40825;52.270;20.984;2023-05-11T00:01:30;101160.60;;;9.41;45.54
54924;BME280;40825;52.270;20.984;2023-05-11T00:03:56;101161.33;;;9.39;45.52
54924;BME280;40825;52.270;20.984;2023-05-11T00:06:22;101161.85;;;9.37;45.72
54924;BME280;40825;52.270;20.984;2023-05-11T00:08:47;101160.80;;;9.34;45.89
54924;BME280;40825;52.270;20.984;2023-05-11T00:11:13;101157.80;;;9.30;46.10
54924;BME280;40825;52.270;20.984;2023-05-11T00:13:38;101155.08;;;9.27;46.08
54924;BME280;40825;52.270;20.984;2023-05-11T00:16:04;101158.34;;;9.25;45.69
54924;BME280;40825;52.270;20.984;2023-05-11T00:18:30;101155.83;;;9.22;45.90
54924;BME280;40825;52.270;20.984;2023-05-11T00:20:55;101157.19;;;9.19;46.12
54924;BME280;40825;52.270;20.984;2023-05-11T00:23:21;101159.14;;;9.17;46.09
54924;BME280;40825;52.270;20.984;2023-05-11T00:25:46;101158.67;;;9.15;46.59
54924;BME280;40825;52.270;20.984;2023-05-11T00:28:12;101161.26;;;9.12;46.74
54924;BME280;40825;52.270;20.984;2023-05-11T00:30:39;101159.03;;;9.10;46.84
54924;BME280;40825;52.270;20.984;2023-05-11T00:33:06;101159.52;;;9.07;46.50
54924;BME280;40825;52.270;20.984;2023-05-11T00:35:31;101158.81;;;9.05;46.43
54924;BME280;40825;52.270;20.984;2023-05-11T00:37:58;101158.70;;;9.03;46.73
54924;BME280;40825;52.270;20.984;2023-05-11T00:40:23;101160.53;;;9.01;46.52
54924;BME280;40825;52.270;20.984;2023-05-11T00:42:49;101157.27;;;8.99;46.69
54924;BME280;40825;52.270;20.984;2023-05-11T00:45:15;101154.27;;;8.98;46.54
54924;BME280;40825;52.270;20.984;2023-05-11T00:47:40;101154.36;;;8.95;46.54
54924;BME280;40825;52.270;20.984;2023-05-11T00:50:07;101152.82;;;8.93;46.69
54924;BME280;40825;52.270;20.984;2023-05-11T00:52:33;101154.45;;;8.91;46.25
54924;BME280;40825;52.270;20.984;2023-05-11T00:54:59;101152.17;;;8.89;46.93
54924;BME280;40825;52.270;20.984;2023-05-11T00:57:25;101153.71;;;8.86;46.60
54924;BME280;40825;52.270;20.984;2023-05-11T00:59:50;101151.29;;;8.82;46.68
54924;BME280;40825;52.270;20.984;2023-05-11T01:02:16;101148.65;;;8.80;46.45
54924;BME280;40825;52.270;20.984;2023-05-11T01:04:43;101146.61;;;8.79;46.75
54924;BME280;40825;52.270;20.984;2023-05-11T01:07:23;101142.98;;;8.76;46.77
54924;BME280;40825;52.270;20.984;2023-05-11T01:10:05;101145.16;;;8.74;46.64
54924;BME280;40825;52.270;20.984;2023-05-11T01:18:39;101139.91;;;8.68;47.18
54924;BME280;40825;52.270;20.984;2023-05-11T01:21:08;101143.50;;;8.66;46.90
54924;BME280;40825;52.270;20.984;2023-05-11T01:26:42;101146.85;;;8.63;47.22
54924;BME280;40825;52.270;20.984;2023-05-11T01:32:09;101142.66;;;8.59;46.83
54924;BME280;40825;52.270;20.984;2023-05-11T01:34:39;101140.40;;;8.57;46.95
54924;BME280;40825;52.270;20.984;2023-05-11T01:37:24;101143.52;;;8.56;47.30
54924;BME280;40825;52.270;20.984;2023-05-11T01:39:54;101142.61;;;8.54;47.15
54924;BME280;40825;52.270;20.984;2023-05-11T01:42:29;101141.45;;;8.53;47.19
54924;BME280;40825;52.270;20.984;2023-05-11T01:44:58;101137.73;;;8.51;46.97
54924;BME280;40825;52.270;20.984;2023-05-11T01:47:27;101135.33;;;8.49;47.11
54924;BME280;40825;52.270;20.984;2023-05-11T01:49:55;101136.70;;;8.47;47.49
54924;BME280;40825;52.270;20.984;2023-05-11T01:52:24;101135.27;;;8.46;47.48
54924;BME280;40825;52.270;20.984;2023-05-11T01:54:51;101134.55;;;8.44;47.37
54924;BME280;40825;52.270;20.984;2023-05-11T01:57:18;101136.84;;;8.42;47.57
54924;BME280;40825;52.270;20.984;2023-05-11T01:59:45;101140.42;;;8.39;47.65
54924;BME280;40825;52.270;20.984;2023-05-11T02:02:13;101138.21;;;8.38;47.11
54924;BME280;40825;52.270;20.984;2023-05-11T02:04:41;101137.42;;;8.37;47.19
54924;BME280;40825;52.270;20.984;2023-05-11T02:07:09;101138.69;;;8.35;47.41
54924;BME280;40825;52.270;20.984;2023-05-11T02:09:37;101142.14;;;8.34;47.38
54924;BME280;40825;52.270;20.984;2023-05-11T02:12:04;101139.14;;;8.34;47.21
54924;BME280;40825;52.270;20.984;2023-05-11T02:14:32;101139.08;;;8.31;47.74
54924;BME280;40825;52.270;20.984;2023-05-11T02:17:00;101142.85;;;8.29;47.54
54924;BME280;40825;52.270;20.984;2023-05-11T02:19:31;101139.59;;;8.28;47.79
54924;BME280;40825;52.270;20.984;2023-05-11T02:21:58;101142.46;;;8.25;47.81
54924;BME280;40825;52.270;20.984;2023-05-11T02:24:27;101145.24;;;8.24;47.47
54924;BME280;40825;52.270;20.984;2023-05-11T02:26:54;101148.04;;;8.23;47.86
54924;BME280;40825;52.270;20.984;2023-05-11T02:29:20;101147.32;;;8.21;47.95
54924;BME280;40825;52.270;20.984;2023-05-11T02:31:48;101144.83;;;8.20;47.73
54924;BME280;40825;52.270;20.984;2023-05-11T02:34:36;101144.45;;;8.18;48.11
54924;BME280;40825;52.270;20.984;2023-05-11T02:37:11;101144.70;;;8.16;47.98
54924;BME280;40825;52.270;20.984;2023-05-11T02:39:37;101141.70;;;8.15;47.70
54924;BME280;40825;52.270;20.984;2023-05-11T02:42:11;101141.08;;;8.15;47.99
54924;BME280;40825;52.270;20.984;2023-05-11T02:44:38;101143.41;;;8.14;47.40
54924;BME280;40825;52.270;20.984;2023-05-11T02:47:07;101145.99;;;8.15;47.36
54924;BME280;40825;52.270;20.984;2023-05-11T02:49:37;101146.03;;;8.15;47.31
54924;BME280;40825;52.270;20.984;2023-05-11T02:52:05;101150.94;;;8.14;47.63
54924;BME280;40825;52.270;20.984;2023-05-11T02:54:31;101145.13;;;8.11;47.41
54924;BME280;40825;52.270;20.984;2023-05-11T02:56:58;101147.80;;;8.09;47.86
54924;BME280;40825;52.270;20.984;2023-05-11T02:59:24;101152.80;;;8.07;48.06
54924;BME280;40825;52.270;20.984;2023-05-11T03:01:51;101150.23;;;8.03;48.29
54924;BME280;40825;52.270;20.984;2023-05-11T03:04:17;101150.11;;;7.99;48.98
54924;BME280;40825;52.270;20.984;2023-05-11T03:06:42;101152.31;;;7.92;48.66
54924;BME280;40825;52.270;20.984;2023-05-11T03:09:08;101150.13;;;7.88;48.63
54924;BME280;40825;52.270;20.984;2023-05-11T03:11:34;101152.38;;;7.83;48.49
54924;BME280;40825;52.270;20.984;2023-05-11T03:14:02;101151.02;;;7.79;48.76
54924;BME280;40825;52.270;20.984;2023-05-11T03:16:28;101153.23;;;7.75;48.86
54924;BME280;40825;52.270;20.984;2023-05-11T03:18:56;101153.17;;;7.70;49.06
54924;BME280;40825;52.270;20.984;2023-05-11T03:21:23;101152.70;;;7.65;49.48
54924;BME280;40825;52.270;20.984;2023-05-11T03:23:49;101153.63;;;7.61;49.37
54924;BME280;40825;52.270;20.984;2023-05-11T03:26:19;101157.89;;;7.60;49.56
54924;BME280;40825;52.270;20.984;2023-05-11T03:28:46;101162.23;;;7.57;49.57
54924;BME280;40825;52.270;20.984;2023-05-11T03:31:13;101158.54;;;7.53;50.47
54924;BME280;40825;52.270;20.984;2023-05-11T03:33:38;101161.34;;;7.50;50.16
54924;BME280;40825;52.270;20.984;2023-05-11T03:36:04;101161.60;;;7.49;50.20
54924;BME280;40825;52.270;20.984;2023-05-11T03:38:31;101165.02;;;7.50;50.18
54924;BME280;40825;52.270;20.984;2023-05-11T03:40:59;101166.15;;;7.49;50.77
54924;BME280;40825;52.270;20.984;2023-05-11T03:43:27;101167.84;;;7.50;50.48
54924;BME280;40825;52.270;20.984;2023-05-11T03:45:55;101166.20;;;7.52;50.29
54924;BME280;40825;52.270;20.984;2023-05-11T03:48:22;101168.18;;;7.55;50.12
54924;BME280;40825;52.270;20.984;2023-05-11T03:50:48;101171.90;;;7.57;50.32
54924;BME280;40825;52.270;20.984;2023-05-11T03:53:15;101173.35;;;7.61;50.02
54924;BME280;40825;52.270;20.984;2023-05-11T03:55:40;101174.89;;;7.65;49.77
54924;BME280;40825;52.270;20.984;2023-05-11T03:58:09;101175.23;;;7.70;49.61
54924;BME280;40825;52.270;20.984;2023-05-11T04:00:39;101177.93;;;7.75;49.51
54924;BME280;40825;52.270;20.984;2023-05-11T04:03:06;101176.23;;;7.82;49.80
54924;BME280;40825;52.270;20.984;2023-05-11T04:05:33;101182.77;;;7.91;49.63
54924;BME280;40825;52.270;20.984;2023-05-11T04:07:58;101182.88;;;8.08;49.17
54924;BME280;40825;52.270;20.984;2023-05-11T04:10:24;101185.95;;;8.23;49.26
54924;BME280;40825;52.270;20.984;2023-05-11T04:12:50;101184.92;;;8.35;48.82
54924;BME280;40825;52.270;20.984;2023-05-11T04:15:17;101183.40;;;8.47;48.89
54924;BME280;40825;52.270;20.984;2023-05-11T04:17:42;101181.81;;;8.58;48.69
54924;BME280;40825;52.270;20.984;2023-05-11T04:20:08;101183.36;;;8.68;48.53
54924;BME280;40825;52.270;20.984;2023-05-11T04:22:34;101180.77;;;8.87;48.29
54924;BME280;40825;52.270;20.984;2023-05-11T04:24:59;101181.14;;;9.13;48.07
54924;BME280;40825;52.270;20.984;2023-05-11T04:27:25;101183.63;;;9.33;48.10
54924;BME280;40825;52.270;20.984;2023-05-11T04:29:50;101181.69;;;9.60;47.59
54924;BME280;40825;52.270;20.984;2023-05-11T04:32:16;101185.58;;;9.92;46.56
54924;BME280;40825;52.270;20.984;2023-05-11T04:34:41;101187.91;;;10.29;46.72
54924;BME280;40825;52.270;20.984;2023-05-11T04:37:07;101186.58;;;10.66;45.30
54924;BME280;40825;52.270;20.984;2023-05-11T04:39:33;101185.23;;;11.08;43.89
54924;BME280;40825;52.270;20.984;2023-05-11T04:41:59;101184.95;;;11.38;42.87
54924;BME280;40825;52.270;20.984;2023-05-11T04:44:26;101187.35;;;11.71;43.16
54924;BME280;40825;52.270;20.984;2023-05-11T04:46:55;101186.61;;;12.10;43.04
54924;BME280;40825;52.270;20.984;2023-05-11T04:49:21;101187.16;;;12.52;41.59
54924;BME280;40825;52.270;20.984;2023-05-11T04:51:46;101192.84;;;12.76;41.25
54924;BME280;40825;52.270;20.984;2023-05-11T04:54:12;101193.55;;;12.76;40.06
54924;BME280;40825;52.270;20.984;2023-05-11T04:56:38;101196.72;;;12.64;39.69
54924;BME280;40825;52.270;20.984;2023-05-11T04:59:08;101197.73;;;12.54;39.94
54924;BME280;40825;52.270;20.984;2023-05-11T05:01:34;101195.52;;;12.50;40.18
54924;BME280;40825;52.270;20.984;2023-05-11T05:04:00;101196.34;;;12.40;40.11
54924;BME280;40825;52.270;20.984;2023-05-11T05:06:26;101194.33;;;12.37;40.42
54924;BME280;40825;52.270;20.984;2023-05-11T05:08:51;101197.63;;;12.32;40.24
54924;BME280;40825;52.270;20.984;2023-05-11T05:11:17;101198.36;;;12.29;40.93
54924;BME280;40825;52.270;20.984;2023-05-11T05:13:42;101201.00;;;12.24;40.60
54924;BME280;40825;52.270;20.984;2023-05-11T05:16:08;101202.17;;;12.12;40.61
54924;BME280;40825;52.270;20.984;2023-05-11T05:18:34;101202.16;;;12.06;40.88
54924;BME280;40825;52.270;20.984;2023-05-11T05:20:59;101204.48;;;11.96;40.28
54924;BME280;40825;52.270;20.984;2023-05-11T05:23:25;101202.80;;;11.84;40.68
54924;BME280;40825;52.270;20.984;2023-05-11T05:25:51;101204.35;;;11.78;40.75
54924;BME280;40825;52.270;20.984;2023-05-11T05:28:16;101206.55;;;11.74;40.95
54924;BME280;40825;52.270;20.984;2023-05-11T05:30:42;101203.38;;;11.70;40.65
54924;BME280;40825;52.270;20.984;2023-05-11T05:33:07;101206.83;;;11.68;41.07
54924;BME280;40825;52.270;20.984;2023-05-11T05:35:33;101205.38;;;11.71;41.04
54924;BME280;40825;52.270;20.984;2023-05-11T05:37:58;101207.92;;;11.75;41.14
54924;BME280;40825;52.270;20.984;2023-05-11T05:40:24;101211.55;;;11.81;40.89
54924;BME280;40825;52.270;20.984;2023-05-11T05:42:49;101211.39;;;11.76;40.72
54924;BME280;40825;52.270;20.984;2023-05-11T05:45:15;101215.30;;;11.81;40.43
54924;BME280;40825;52.270;20.984;2023-05-11T05:47:40;101213.23;;;11.85;40.61
54924;BME280;40825;52.270;20.984;2023-05-11T05:50:06;101213.27;;;11.94;41.11
54924;BME280;40825;52.270;20.984;2023-05-11T05:52:32;101212.80;;;11.98;40.51
54924;BME280;40825;52.270;20.984;2023-05-11T05:54:58;101214.34;;;12.06;40.42
54924;BME280;40825;52.270;20.984;2023-05-11T05:57:24;101214.97;;;12.20;40.57
54924;BME280;40825;52.270;20.984;2023-05-11T05:59:49;101211.63;;;12.34;40.83
54924;BME280;40825;52.270;20.984;2023-05-11T06:02:15;101219.47;;;12.53;40.33
54924;BME280;40825;52.270;20.984;2023-05-11T06:04:41;101215.58;;;12.66;39.92
54924;BME280;40825;52.270;20.984;2023-05-11T06:07:07;101215.39;;;12.86;40.20
54924;BME280;40825;52.270;20.984;2023-05-11T06:09:32;101214.16;;;13.06;39.80
54924;BME280;40825;52.270;20.984;2023-05-11T06:11:58;101212.45;;;13.22;38.94
54924;BME280;40825;52.270;20.984;2023-05-11T06:14:24;101214.74;;;13.34;39.25
54924;BME280;40825;52.270;20.984;2023-05-11T06:16:50;101212.13;;;13.54;38.53
54924;BME280;40825;52.270;20.984;2023-05-11T06:19:15;101215.81;;;13.77;37.80
54924;BME280;40825;52.270;20.984;2023-05-11T06:21:41;101216.11;;;14.00;37.34
54924;BME280;40825;52.270;20.984;2023-05-11T06:24:07;101217.27;;;14.20;36.82
54924;BME280;40825;52.270;20.984;2023-05-11T06:26:33;101217.30;;;14.32;36.38
54924;BME280;40825;52.270;20.984;2023-05-11T06:28:58;101223.20;;;14.51;36.17
54924;BME280;40825;52.270;20.984;2023-05-11T06:31:24;101224.85;;;14.68;35.56
54924;BME280;40825;52.270;20.984;2023-05-11T06:33:50;101223.48;;;14.73;34.81
54924;BME280;40825;52.270;20.984;2023-05-11T06:36:16;101222.92;;;14.83;35.94
54924;BME280;40825;52.270;20.984;2023-05-11T06:38:41;101221.30;;;15.03;36.35
54924;BME280;40825;52.270;20.984;2023-05-11T06:41:07;101223.63;;;15.21;35.11
54924;BME280;40825;52.270;20.984;2023-05-11T06:43:36;101221.45;;;15.36;35.13
54924;BME280;40825;52.270;20.984;2023-05-11T06:46:03;101227.71;;;15.43;34.05
54924;BME280;40825;52.270;20.984;2023-05-11T06:48:29;101225.99;;;15.51;33.30
54924;BME280;40825;52.270;20.984;2023-05-11T06:50:55;101224.40;;;15.66;33.43
54924;BME280;40825;52.270;20.984;2023-05-11T06:53:21;101221.52;;;15.77;33.08
54924;BME280;40825;52.270;20.984;2023-05-11T06:55:47;101219.08;;;15.84;32.81
54924;BME280;40825;52.270;20.984;2023-05-11T06:58:13;101220.60;;;15.97;32.32
54924;BME280;40825;52.270;20.984;2023-05-11T07:00:38;101220.23;;;16.15;32.86
54924;BME280;40825;52.270;20.984;2023-05-11T07:03:05;101219.39;;;16.36;32.79
54924;BME280;40825;52.270;20.984;2023-05-11T07:05:34;101219.41;;;16.49;32.43
54924;BME280;40825;52.270;20.984;2023-05-11T07:07:59;101225.58;;;16.69;32.17
54924;BME280;40825;52.270;20.984;2023-05-11T07:10:25;101228.17;;;16.76;30.51
54924;BME280;40825;52.270;20.984;2023-05-11T07:12:51;101224.75;;;16.84;30.77
54924;BME280;40825;52.270;20.984;2023-05-11T07:15:16;101225.17;;;16.93;30.45
54924;BME280;40825;52.270;20.984;2023-05-11T07:17:42;101229.55;;;17.07;30.06
54924;BME280;40825;52.270;20.984;2023-05-11T07:20:11;101224.58;;;17.17;28.47
54924;BME280;40825;52.270;20.984;2023-05-11T07:22:37;101229.91;;;17.50;28.99
54924;BME280;40825;52.270;20.984;2023-05-11T07:25:02;101219.51;;;17.80;28.67
54924;BME280;40825;52.270;20.984;2023-05-11T07:27:28;101215.44;;;18.09;28.11
54924;BME280;40825;52.270;20.984;2023-05-11T07:29:55;101212.05;;;18.46;28.47
54924;BME280;40825;52.270;20.984;2023-05-11T07:32:21;101218.29;;;18.44;26.91
54924;BME280;40825;52.270;20.984;2023-05-11T07:34:46;101210.48;;;18.41;26.88
54924;BME280;40825;52.270;20.984;2023-05-11T07:37:12;101210.44;;;18.49;26.64
54924;BME280;40825;52.270;20.984;2023-05-11T07:39:38;101211.15;;;18.66;26.42
54924;BME280;40825;52.270;20.984;2023-05-11T07:42:03;101217.40;;;18.75;26.44
54924;BME280;40825;52.270;20.984;2023-05-11T07:44:29;101221.40;;;18.82;25.38
54924;BME280;40825;52.270;20.984;2023-05-11T07:46:55;101218.54;;;18.58;24.44
54924;BME280;40825;52.270;20.984;2023-05-11T07:49:20;101214.84;;;18.49;25.48
54924;BME280;40825;52.270;20.984;2023-05-11T07:51:46;101215.95;;;18.44;25.15
54924;BME280;40825;52.270;20.984;2023-05-11T07:54:11;101228.07;;;18.32;25.46
54924;BME280;40825;52.270;20.984;2023-05-11T07:56:37;101221.77;;;18.27;24.88
54924;BME280;40825;52.270;20.984;2023-05-11T07:59:02;101224.09;;;18.23;25.72
54924;BME280;40825;52.270;20.984;2023-05-11T08:01:28;101217.48;;;18.26;25.83
54924;BME280;40825;52.270;20.984;2023-05-11T08:03:53;101215.67;;;18.25;26.14
54924;BME280;40825;52.270;20.984;2023-05-11T08:06:18;101219.41;;;18.16;26.16
54924;BME280;40825;52.270;20.984;2023-05-11T08:08:44;101212.89;;;18.09;26.17
54924;BME280;40825;52.270;20.984;2023-05-11T08:11:09;101216.27;;;17.97;25.42
54924;BME280;40825;52.270;20.984;2023-05-11T08:13:35;101214.38;;;17.71;25.41
54924;BME280;40825;52.270;20.984;2023-05-11T08:16:00;101221.67;;;17.61;25.60
54924;BME280;40825;52.270;20.984;2023-05-11T08:18:26;101212.73;;;17.57;26.42
54924;BME280;40825;52.270;20.984;2023-05-11T08:20:52;101205.98;;;17.72;26.78
54924;BME280;40825;52.270;20.984;2023-05-11T08:23:18;101213.65;;;17.68;26.22
54924;BME280;40825;52.270;20.984;2023-05-11T08:25:51;101211.64;;;17.75;26.45
54924;BME280;40825;52.270;20.984;2023-05-11T08:28:17;101211.57;;;18.02;26.23
54924;BME280;40825;52.270;20.984;2023-05-11T08:30:43;101203.73;;;18.37;25.84
54924;BME280;40825;52.270;20.984;2023-05-11T08:33:09;101199.31;;;18.89;25.43
54924;BME280;40825;52.270;20.984;2023-05-11T08:35:34;101205.71;;;19.06;24.63
54924;BME280;40825;52.270;20.984;2023-05-11T08:38:00;101200.59;;;19.33;24.59
54924;BME280;40825;52.270;20.984;2023-05-11T08:40:26;101206.62;;;19.62;24.14
54924;BME280;40825;52.270;20.984;2023-05-11T08:42:56;101198.31;;;19.71;24.60
54924;BME280;40825;52.270;20.984;2023-05-11T08:45:27;101193.06;;;19.98;24.69
54924;BME280;40825;52.270;20.984;2023-05-11T08:47:55;101195.52;;;20.23;23.85
54924;BME280;40825;52.270;20.984;2023-05-11T08:50:21;101194.40;;;20.41;23.92
54924;BME280;40825;52.270;20.984;2023-05-11T08:52:49;101194.86;;;20.57;23.87
54924;BME280;40825;52.270;20.984;2023-05-11T08:55:15;101194.23;;;20.61;23.53
54924;BME280;40825;52.270;20.984;2023-05-11T08:57:43;101192.49;;;20.58;22.84
54924;BME280;40825;52.270;20.984;2023-05-11T09:00:11;101187.62;;;20.96;22.91
54924;BME280;40825;52.270;20.984;2023-05-11T09:02:37;101189.45;;;21.29;23.01
54924;BME280;40825;52.270;20.984;2023-05-11T09:05:04;101194.25;;;21.58;22.52
54924;BME280;40825;52.270;20.984;2023-05-11T09:07:35;101198.06;;;22.05;22.73
54924;BME280;40825;52.270;20.984;2023-05-11T09:10:02;101193.10;;;22.58;22.23
54924;BME280;40825;52.270;20.984;2023-05-11T09:12:27;101200.41;;;22.60;21.53
54924;BME280;40825;52.270;20.984;2023-05-11T09:14:54;101200.70;;;22.25;21.36
54924;BME280;40825;52.270;20.984;2023-05-11T09:17:20;101199.03;;;22.08;21.59
54924;BME280;40825;52.270;20.984;2023-05-11T09:20:01;101199.83;;;21.96;22.08
54924;BME280;40825;52.270;20.984;2023-05-11T09:22:32;101202.16;;;21.73;21.85
54924;BME280;40825;52.270;20.984;2023-05-11T09:25:00;101203.02;;;21.59;21.67
54924;BME280;40825;52.270;20.984;2023-05-11T09:27:26;101194.55;;;21.53;21.50
54924;BME280;40825;52.270;20.984;2023-05-11T09:29:54;101192.80;;;21.65;21.93
54924;BME280;40825;52.270;20.984;2023-05-11T09:32:20;101191.14;;;21.51;21.67
54924;BME280;40825;52.270;20.984;2023-05-11T09:34:46;101190.41;;;21.53;22.10
54924;BME280;40825;52.270;20.984;2023-05-11T09:37:16;101185.46;;;21.82;21.98
54924;BME280;40825;52.270;20.984;2023-05-11T09:39:42;101181.44;;;22.14;21.83
54924;BME280;40825;52.270;20.984;2023-05-11T09:42:14;101178.64;;;22.40;21.63
54924;BME280;40825;52.270;20.984;2023-05-11T09:44:41;101189.46;;;22.27;21.46
54924;BME280;40825;52.270;20.984;2023-05-11T09:47:11;101186.92;;;22.26;21.49
54924;BME280;40825;52.270;20.984;2023-05-11T09:49:41;101188.32;;;22.28;21.84
54924;BME280;40825;52.270;20.984;2023-05-11T09:52:11;101180.48;;;22.35;21.36
54924;BME280;40825;52.270;20.984;2023-05-11T09:54:44;101183.81;;;22.47;21.49
54924;BME280;40825;52.270;20.984;2023-05-11T09:59:49;101171.41;;;22.65;21.74
54924;BME280;40825;52.270;20.984;2023-05-11T10:04:46;101175.61;;;22.74;21.59
54924;BME280;40825;52.270;20.984;2023-05-11T10:07:29;101175.40;;;22.62;21.55
54924;BME280;40825;52.270;20.984;2023-05-11T10:09:58;101177.01;;;22.36;21.41
54924;BME280;40825;52.270;20.984;2023-05-11T10:12:25;101168.90;;;22.15;21.64
54924;BME280;40825;52.270;20.984;2023-05-11T10:15:01;101165.98;;;21.99;22.05
54924;BME280;40825;52.270;20.984;2023-05-11T10:17:28;101165.48;;;21.87;22.03
54924;BME280;40825;52.270;20.984;2023-05-11T10:19:55;101162.52;;;21.70;22.26
54924;BME280;40825;52.270;20.984;2023-05-11T10:22:21;101157.13;;;21.74;22.86
54924;BME280;40825;52.270;20.984;2023-05-11T10:24:48;101151.26;;;22.03;22.79
54924;BME280;40825;52.270;20.984;2023-05-11T10:27:14;101158.43;;;21.92;21.94
54924;BME280;40825;52.270;20.984;2023-05-11T10:29:41;101150.60;;;21.84;22.28
54924;BME280;40825;52.270;20.984;2023-05-11T10:32:07;101154.41;;;21.77;21.90
54924;BME280;40825;52.270;20.984;2023-05-11T10:34:33;101156.41;;;21.51;22.12
54924;BME280;40825;52.270;20.984;2023-05-11T10:36:59;101153.02;;;21.30;22.60
54924;BME280;40825;52.270;20.984;2023-05-11T10:39:29;101148.75;;;21.31;22.54
54924;BME280;40825;52.270;20.984;2023-05-11T10:50:42;101131.42;;;21.50;23.11
54924;BME280;40825;52.270;20.984;2023-05-11T10:53:39;101137.02;;;21.34;23.08
54924;BME280;40825;52.270;20.984;2023-05-11T10:56:15;101139.34;;;21.27;23.45
54924;BME280;40825;52.270;20.984;2023-05-11T11:01:49;101135.48;;;20.72;23.35
54924;BME280;40825;52.270;20.984;2023-05-11T11:04:22;101139.13;;;20.59;23.41
54924;BME280;40825;52.270;20.984;2023-05-11T11:07:02;101126.59;;;20.64;24.37
54924;BME280;40825;52.270;20.984;2023-05-11T11:12:14;101118.67;;;20.56;23.73
54924;BME280;40825;52.270;20.984;2023-05-11T11:15:00;101113.13;;;20.44;24.78
54924;BME280;40825;52.270;20.984;2023-05-11T11:17:30;101117.11;;;20.46;24.42
54924;BME280;40825;52.270;20.984;2023-05-11T11:20:03;101119.65;;;20.53;24.41
54924;BME280;40825;52.270;20.984;2023-05-11T11:25:13;101112.61;;;20.65;24.72
54924;BME280;40825;52.270;20.984;2023-05-11T11:30:26;101121.12;;;20.33;24.44
54924;BME280;40825;52.270;20.984;2023-05-11T11:38:09;101103.42;;;19.76;25.05
54924;BME280;40825;52.270;20.984;2023-05-11T11:40:39;101107.48;;;19.73;25.25
54924;BME280;40825;52.270;20.984;2023-05-11T11:43:13;101108.16;;;19.72;24.88
54924;BME280;40825;52.270;20.984;2023-05-11T11:51:08;101108.64;;;19.66;25.14
54924;BME280;40825;52.270;20.984;2023-05-11T11:56:35;101107.04;;;19.65;24.89
54924;BME280;40825;52.270;20.984;2023-05-11T11:59:00;101109.92;;;19.66;24.74
54924;BME280;40825;52.270;20.984;2023-05-11T12:01:34;101112.52;;;19.60;24.58
54924;BME280;40825;52.270;20.984;2023-05-11T12:06:37;101106.41;;;19.71;25.18
54924;BME280;40825;52.270;20.984;2023-05-11T12:09:03;101101.70;;;19.89;24.84
54924;BME280;40825;52.270;20.984;2023-05-11T12:11:32;101102.21;;;20.03;25.17
54924;BME280;40825;52.270;20.984;2023-05-11T12:14:01;101103.02;;;20.13;24.88
54924;BME280;40825;52.270;20.984;2023-05-11T12:16:27;101108.00;;;20.19;24.95
54924;BME280;40825;52.270;20.984;2023-05-11T12:18:55;101106.38;;;20.27;25.06
54924;BME280;40825;52.270;20.984;2023-05-11T12:21:22;101105.38;;;20.37;25.37
54924;BME280;40825;52.270;20.984;2023-05-11T12:24:00;101100.73;;;20.35;24.95
54924;BME280;40825;52.270;20.984;2023-05-11T12:26:27;101105.90;;;20.28;24.69
54924;BME280;40825;52.270;20.984;2023-05-11T12:29:26;101102.48;;;20.05;24.60
54924;BME280;40825;52.270;20.984;2023-05-11T12:31:51;101098.66;;;19.90;24.79
54924;BME280;40825;52.270;20.984;2023-05-11T12:34:19;101097.75;;;19.90;25.19
54924;BME280;40825;52.270;20.984;2023-05-11T12:36:49;101096.11;;;19.94;25.05
54924;BME280;40825;52.270;20.984;2023-05-11T12:39:20;101094.75;;;19.94;25.26
54924;BME280;40825;52.270;20.984;2023-05-11T12:41:48;101093.56;;;19.94;24.82
54924;BME280;40825;52.270;20.984;2023-05-11T12:44:15;101087.08;;;19.88;25.07
54924;BME280;40825;52.270;20.984;2023-05-11T12:46:42;101081.03;;;19.98;25.60
54924;BME280;40825;52.270;20.984;2023-05-11T12:49:11;101083.55;;;19.95;25.21
54924;BME280;40825;52.270;20.984;2023-05-11T12:52:11;101079.75;;;19.88;25.17
54924;BME280;40825;52.270;20.984;2023-05-11T12:54:41;101074.80;;;19.94;25.24
54924;BME280;40825;52.270;20.984;2023-05-11T13:00:04;101068.79;;;19.82;25.62
54924;BME280;40825;52.270;20.984;2023-05-11T13:02:31;101068.22;;;19.84;26.18
54924;BME280;40825;52.270;20.984;2023-05-11T13:04:56;101071.42;;;19.83;26.27
54924;BME280;40825;52.270;20.984;2023-05-11T13:07:27;101066.08;;;19.78;25.98
54924;BME280;40825;52.270;20.984;2023-05-11T13:09:59;101062.49;;;19.65;26.01
54924;BME280;40825;52.270;20.984;2023-05-11T13:12:35;101062.50;;;19.62;26.23
54924;BME280;40825;52.270;20.984;2023-05-11T13:15:15;101064.21;;;19.71;26.83
54924;BME280;40825;52.270;20.984;2023-05-11T13:17:44;101061.21;;;19.61;26.01
54924;BME280;40825;52.270;20.984;2023-05-11T13:20:20;101054.81;;;19.46;26.11
54924;BME280;40825;52.270;20.984;2023-05-11T13:22:48;101059.42;;;19.49;26.24
54924;BME280;40825;52.270;20.984;2023-05-11T13:25:16;101062.08;;;19.47;26.06
54924;BME280;40825;52.270;20.984;2023-05-11T13:27:42;101065.65;;;19.40;26.16
54924;BME280;40825;52.270;20.984;2023-05-11T13:30:08;101061.10;;;19.33;25.97
54924;BME280;40825;52.270;20.984;2023-05-11T13:32:34;101050.92;;;19.31;26.15
54924;BME280;40825;52.270;20.984;2023-05-11T13:35:04;101053.11;;;19.30;26.03
54924;BME280;40825;52.270;20.984;2023-05-11T13:37:30;101054.57;;;19.25;26.21
54924;BME280;40825;52.270;20.984;2023-05-11T13:39:56;101052.33;;;19.22;26.04
54924;BME280;40825;52.270;20.984;2023-05-11T13:42:22;101049.56;;;19.17;26.18